sensor_id;sensor_type;location;lat;lon;timestamp;pressure;altitude;pressure_sealevel;temperature;humidity
69027;BME280;56080;47.594;19.116;2023-04-09T00:08:53;100915;;;5.16;100.00
69027;BME280;56080;47.594;19.116;2023-04-09T00:18:54;100915;;;5.11;100.00
69027;BME280;56080;47.594;19.116;2023-04-09T00:28:54;100918;;;5.11;100.00
69027;BME280;56080;47.594;19.116;2023-04-09T00:38:55;100913;;;4.74;100.00
69027;BME280;56080;47.594;19.116;2023-04-09T00:48:55;100916;;;4.96;100.00
69027;BME280;56080;47.594;19.116;2023-04-09T00:58:55;100914;;;5.12;100.00
69027;BME280;56080;47.594;19.116;2023-04-09T01:08:59;100914;;;5.17;100.00
69027;BME280;56080;47.594;19.116;2023-04-09T01:18:58;100911;;;5.11;100.00
69027;BME280;56080;47.594;19.116;2023-04-09T01:28:56;100910;;;5.06;100.00
69027;BME280;56080;47.594;19.116;2023-04-09T01:48:57;100918;;;5.06;100.00
69027;BME280;56080;47.594;19.116;2023-04-09T01:58:58;100913;;;5.07;100.00
69027;BME280;56080;47.594;19.116;2023-04-09T02:19:00;100913;;;5.02;100.00
69027;BME280;56080;47.594;19.116;2023-04-09T02:28:59;100904;;;4.80;100.00
69027;BME280;56080;47.594;19.116;2023-04-09T02:39:00;100904;;;4.96;100.00
69027;BME280;56080;47.594;19.116;2023-04-09T02:49:00;100901;;;4.86;100.00
69027;BME280;56080;47.594;19.116;2023-04-09T02:59:01;100900;;;4.85;100.00
69027;BME280;56080;47.594;19.116;2023-04-09T03:09:01;100906;;;4.87;100.00
69027;BME280;56080;47.594;19.116;2023-04-09T03:19:02;100907;;;4.80;100.00
69027;BME280;56080;47.594;19.116;2023-04-09T03:29:03;100905;;;4.88;100.00
69027;BME280;56080;47.594;19.116;2023-04-09T03:39:03;100905;;;4.92;100.00
69027;BME280;56080;47.594;19.116;2023-04-09T03:49:03;100904;;;4.92;100.00
69027;BME280;56080;47.594;19.116;2023-04-09T03:59:04;100906;;;4.86;100.00
69027;BME280;56080;47.594;19.116;2023-04-09T04:09:04;100918;;;4.97;100.00
69027;BME280;56080;47.594;19.116;2023-04-09T04:19:05;100919;;;4.81;100.00
69027;BME280;56080;47.594;19.116;2023-04-09T04:29:05;100922;;;5.01;100.00
69027;BME280;56080;47.594;19.116;2023-04-09T04:39:06;100929;;;5.05;99.96
69027;BME280;56080;47.594;19.116;2023-04-09T04:49:06;100936;;;5.10;99.55
69027;BME280;56080;47.594;19.116;2023-04-09T04:59:06;100938;;;5.17;99.94
69027;BME280;56080;47.594;19.116;2023-04-09T05:09:07;100941;;;5.02;100.00
69027;BME280;56080;47.594;19.116;2023-04-09T05:19:07;100944;;;5.16;100.00
69027;BME280;56080;47.594;19.116;2023-04-09T05:29:08;100948;;;5.34;100.00
69027;BME280;56080;47.594;19.116;2023-04-09T05:39:08;100954;;;5.54;99.75
69027;BME280;56080;47.594;19.116;2023-04-09T05:49:09;100965;;;5.60;98.59
69027;BME280;56080;47.594;19.116;2023-04-09T05:59:10;100968;;;5.65;97.52
69027;BME280;56080;47.594;19.116;2023-04-09T06:09:10;100981;;;5.67;96.83
69027;BME280;56080;47.594;19.116;2023-04-09T06:19:11;100976;;;5.73;96.50
69027;BME280;56080;47.594;19.116;2023-04-09T06:29:11;100978;;;5.81;96.52
69027;BME280;56080;47.594;19.116;2023-04-09T06:39:12;100985;;;5.67;96.15
69027;BME280;56080;47.594;19.116;2023-04-09T06:49:13;100985;;;5.91;95.74
69027;BME280;56080;47.594;19.116;2023-04-09T06:59:13;100994;;;5.64;96.00
69027;BME280;56080;47.594;19.116;2023-04-09T07:09:14;101001;;;6.12;94.73
69027;BME280;56080;47.594;19.116;2023-04-09T07:19:14;101009;;;6.21;93.17
69027;BME280;56080;47.594;19.116;2023-04-09T07:29:15;101015;;;6.15;91.88
69027;BME280;56080;47.594;19.116;2023-04-09T07:39:16;101016;;;6.36;90.12
69027;BME280;56080;47.594;19.116;2023-04-09T07:49:16;101021;;;6.62;89.54
69027;BME280;56080;47.594;19.116;2023-04-09T07:59:17;101026;;;6.57;85.94
69027;BME280;56080;47.594;19.116;2023-04-09T08:09:18;101027;;;6.62;86.11
69027;BME280;56080;47.594;19.116;2023-04-09T08:19:19;101031;;;6.90;84.29
69027;BME280;56080;47.594;19.116;2023-04-09T08:29:18;101036;;;7.17;83.41
69027;BME280;56080;47.594;19.116;2023-04-09T08:39:19;101054;;;7.32;81.40
69027;BME280;56080;47.594;19.116;2023-04-09T08:49:20;101054;;;7.46;80.15
69027;BME280;56080;47.594;19.116;2023-04-09T08:59:21;101060;;;7.71;77.56
69027;BME280;56080;47.594;19.116;2023-04-09T09:09:21;101067;;;8.08;76.63
69027;BME280;56080;47.594;19.116;2023-04-09T09:29:23;101071;;;8.01;76.69
69027;BME280;56080;47.594;19.116;2023-04-09T09:39:24;101064;;;8.52;75.15
69027;BME280;56080;47.594;19.116;2023-04-09T09:49:24;101064;;;8.70;73.89
69027;BME280;56080;47.594;19.116;2023-04-09T09:59:30;101051;;;8.30;75.04
69027;BME280;56080;47.594;19.116;2023-04-09T10:09:26;101052;;;8.44;74.23
69027;BME280;56080;47.594;19.116;2023-04-09T10:19:27;101051;;;8.45;73.62
69027;BME280;56080;47.594;19.116;2023-04-09T10:29:28;101050;;;8.51;74.27
69027;BME280;56080;47.594;19.116;2023-04-09T10:39:30;101052;;;8.79;73.66
69027;BME280;56080;47.594;19.116;2023-04-09T10:49:34;101041;;;9.02;72.99
69027;BME280;56080;47.594;19.116;2023-04-09T10:59:30;101048;;;9.34;71.25
69027;BME280;56080;47.594;19.116;2023-04-09T11:09:34;101042;;;9.41;70.74
69027;BME280;56080;47.594;19.116;2023-04-09T11:19:33;101039;;;9.40;69.80
69027;BME280;56080;47.594;19.116;2023-04-09T11:29:34;101033;;;9.50;69.48
69027;BME280;56080;47.594;19.116;2023-04-09T11:39:35;101031;;;9.58;69.93
69027;BME280;56080;47.594;19.116;2023-04-09T11:49:34;101030;;;9.76;68.81
69027;BME280;56080;47.594;19.116;2023-04-09T11:59:36;101024;;;9.84;68.13
69027;BME280;56080;47.594;19.116;2023-04-09T12:09:45;101023;;;9.86;67.27
69027;BME280;56080;47.594;19.116;2023-04-09T12:19:37;101027;;;10.24;65.88
69027;BME280;56080;47.594;19.116;2023-04-09T12:29:38;101020;;;10.57;65.38
69027;BME280;56080;47.594;19.116;2023-04-09T12:39:38;101003;;;10.31;63.77
69027;BME280;56080;47.594;19.116;2023-04-09T12:49:45;100998;;;10.29;63.12
69027;BME280;56080;47.594;19.116;2023-04-09T12:59:40;100999;;;10.37;63.97
69027;BME280;56080;47.594;19.116;2023-04-09T13:19:43;100981;;;10.09;62.42
69027;BME280;56080;47.594;19.116;2023-04-09T13:29:43;100975;;;10.26;61.82
69027;BME280;56080;47.594;19.116;2023-04-09T13:39:45;100975;;;10.74;60.57
69027;BME280;56080;47.594;19.116;2023-04-09T13:49:45;100961;;;10.75;59.11
69027;BME280;56080;47.594;19.116;2023-04-09T13:59:46;100959;;;11.14;57.59
69027;BME280;56080;47.594;19.116;2023-04-09T14:09:48;100949;;;11.74;54.56
69027;BME280;56080;47.594;19.116;2023-04-09T14:19:48;100950;;;11.60;53.83
69027;BME280;56080;47.594;19.116;2023-04-09T14:29:49;100945;;;11.61;53.08
69027;BME280;56080;47.594;19.116;2023-04-09T14:39:50;100934;;;11.44;52.51
69027;BME280;56080;47.594;19.116;2023-04-09T14:49:51;100937;;;11.50;53.63
69027;BME280;56080;47.594;19.116;2023-04-09T14:59:52;100939;;;11.56;53.62
69027;BME280;56080;47.594;19.116;2023-04-09T15:09:52;100939;;;11.30;53.89
69027;BME280;56080;47.594;19.116;2023-04-09T15:19:53;100934;;;11.29;55.50
69027;BME280;56080;47.594;19.116;2023-04-09T15:29:54;100935;;;10.91;56.17
69027;BME280;56080;47.594;19.116;2023-04-09T15:39:55;100929;;;10.89;56.23
69027;BME280;56080;47.594;19.116;2023-04-09T15:49:58;100928;;;10.75;57.63
69027;BME280;56080;47.594;19.116;2023-04-09T15:59:57;100924;;;10.70;58.74
69027;BME280;56080;47.594;19.116;2023-04-09T16:09:59;100928;;;10.47;60.82
69027;BME280;56080;47.594;19.116;2023-04-09T16:19:59;100927;;;10.24;62.03
69027;BME280;56080;47.594;19.116;2023-04-09T16:30:00;100936;;;10.34;61.97
69027;BME280;56080;47.594;19.116;2023-04-09T16:40:01;100936;;;10.29;62.10
69027;BME280;56080;47.594;19.116;2023-04-09T16:50:02;100932;;;10.05;62.55
69027;BME280;56080;47.594;19.116;2023-04-09T17:00:05;100934;;;10.10;62.66
69027;BME280;56080;47.594;19.116;2023-04-09T17:20:04;100928;;;9.93;62.89
69027;BME280;56080;47.594;19.116;2023-04-09T17:40:06;100941;;;9.96;63.25
69027;BME280;56080;47.594;19.116;2023-04-09T17:50:07;100953;;;9.85;63.42
69027;BME280;56080;47.594;19.116;2023-04-09T18:00:08;100958;;;9.72;64.07
69027;BME280;56080;47.594;19.116;2023-04-09T18:10:08;100972;;;9.43;65.16
69027;BME280;56080;47.594;19.116;2023-04-09T18:20:09;100985;;;9.52;65.09
69027;BME280;56080;47.594;19.116;2023-04-09T18:30:10;100991;;;9.23;67.25
69027;BME280;56080;47.594;19.116;2023-04-09T18:40:11;100995;;;9.20;66.70
69027;BME280;56080;47.594;19.116;2023-04-09T18:50:14;100991;;;8.78;69.24
69027;BME280;56080;47.594;19.116;2023-04-09T19:00:12;100991;;;8.51;70.61
69027;BME280;56080;47.594;19.116;2023-04-09T19:10:14;101002;;;8.18;72.56
69027;BME280;56080;47.594;19.116;2023-04-09T19:20:14;101006;;;8.20;73.05
69027;BME280;56080;47.594;19.116;2023-04-09T19:30:15;101012;;;7.99;74.16
69027;BME280;56080;47.594;19.116;2023-04-09T19:40:17;101007;;;7.85;75.35
69027;BME280;56080;47.594;19.116;2023-04-09T19:50:16;101002;;;7.82;76.54
69027;BME280;56080;47.594;19.116;2023-04-09T20:00:17;101003;;;7.49;77.36
69027;BME280;56080;47.594;19.116;2023-04-09T20:10:18;101005;;;7.64;77.91
69027;BME280;56080;47.594;19.116;2023-04-09T20:20:20;101008;;;7.38;78.49
69027;BME280;56080;47.594;19.116;2023-04-09T20:30:20;101005;;;7.37;78.82
69027;BME280;56080;47.594;19.116;2023-04-09T20:40:20;101009;;;7.10;80.13
69027;BME280;56080;47.594;19.116;2023-04-09T20:50:21;101006;;;7.04;79.06
69027;BME280;56080;47.594;19.116;2023-04-09T21:00:21;101007;;;6.76;80.17
69027;BME280;56080;47.594;19.116;2023-04-09T21:10:22;101014;;;6.53;80.43
69027;BME280;56080;47.594;19.116;2023-04-09T21:20:23;101006;;;6.44;81.97
69027;BME280;56080;47.594;19.116;2023-04-09T21:30:24;101004;;;6.35;83.16
69027;BME280;56080;47.594;19.116;2023-04-09T21:40:24;101000;;;6.17;82.64
69027;BME280;56080;47.594;19.116;2023-04-09T21:50:25;100998;;;5.87;85.15
69027;BME280;56080;47.594;19.116;2023-04-09T22:00:26;101008;;;5.60;86.16
69027;BME280;56080;47.594;19.116;2023-04-09T22:10:26;101010;;;5.35;85.75
69027;BME280;56080;47.594;19.116;2023-04-09T22:20:27;101013;;;5.17;86.27
69027;BME280;56080;47.594;19.116;2023-04-09T22:30:27;101014;;;5.24;86.98
69027;BME280;56080;47.594;19.116;2023-04-09T22:40:28;101014;;;5.25;86.63
69027;BME280;56080;47.594;19.116;2023-04-09T22:50:28;101014;;;5.04;87.68
69027;BME280;56080;47.594;19.116;2023-04-09T23:00:29;101012;;;4.94;86.76
69027;BME280;56080;47.594;19.116;2023-04-09T23:10:30;101008;;;4.72;85.32
69027;BME280;56080;47.594;19.116;2023-04-09T23:20:30;101003;;;4.55;87.65
69027;BME280;56080;47.594;19.116;2023-04-09T23:30:31;101004;;;4.60;86.22
69027;BME280;56080;47.594;19.116;2023-04-09T23:40:31;101007;;;4.33;86.94
69027;BME280;56080;47.594;19.116;2023-04-09T23:50:32;100999;;;4.24;88.49
